YUKO2: Yukon 2NNE(N Canadian R)

Data processed at Fri May 24 2019 23:50


All information presented herein is the property of the government of the United States of America and may be revised or deleted at any time without prior notice.
Dissemination of this information without the expressed written consent of the Public Affairs Office, Tulsa District U.S. Army Corps of Engineers is strictly prohibited.
These data are gathered electronically and, as presented, have not undergone any form of quality control. These data are not guaranteed to be valid or correct.
Go to home page.
Go to station list.
Go to home page.

Upstream stations:

Downstream station:
Previous Day
Next Day
Current Day
    
SHEF ID:       YUKO2     North Canadian River near Yukon,
STATION TYPE:  
Regulating: Stage =    11.00, Flow =     3611

                STAGE  STAGE(2)  RIV-FLOW  WTR-TEMP   CONDUCT  BAT-LOAD
                   ft        ft       cfs         F   umho/cm      volt
              Ccp-Rev   Ccp-Rev   Ccp-Rev   Ccp-Rev   Ccp-Rev   Ccp-Rev
(US/Central)
05/24 00:00     12.54      ----      4695     68.72       373     12.89
05/24 01:00     12.43      ----      4601     68.65       378     12.89
05/24 02:00     12.32      ----      4512     68.59       379     12.83
05/24 03:00     12.24      ----      4449     68.49       380     12.83
05/24 04:00     12.15      ----      4378     68.38       381     12.83
05/24 05:00     12.04      ----      4292     68.27       383     12.77
05/24 06:00     11.90      ----      4184     68.23       384     12.77
05/24 07:00     11.81      ----      4115     68.22       386     12.71
05/24 08:00     11.69      ----      4024     68.25       389     12.83
05/24 09:00     11.58      ----      3942     68.32       392     13.12
05/24 10:00     11.47      ----      3868     68.50       391     13.77
05/24 11:00     11.39      ----      3824     68.70       397     14.06
05/24 12:00     11.29      ----      3769     68.90       405     14.00
05/24 13:00     11.21      ----      3725     69.28       410     14.00
05/24 14:00     11.11      ----      3671     69.64       414     14.00
05/24 15:00     11.03      ----      3627     70.07       419     13.94
05/24 16:00     10.94      ----      3579     70.45       424     13.94
05/24 17:00     10.87      ----      3541     70.74       428     13.77
05/24 18:00     10.80      ----      3504     70.88       432     13.94
05/24 19:00     10.70      ----      3451     71.02       434     13.30
05/24 20:00     10.65      ----      3424     71.20       442     13.00
05/24 21:00     10.55      ----      3371     71.17       447     12.89
05/24 22:00     10.58      ----      3387     70.99       449     12.89
05/24 23:00     10.70      ----      3451     70.75       454     12.89